sensor_id;sensor_type;location;lat;lon;timestamp;P1;durP1;ratioP1;P2;durP2;ratioP2
62151;SDS011;48139;47.474;19.034;2023-06-26T03:37:21;15.35;;;8.02;;
62151;SDS011;48139;47.474;19.034;2023-06-26T03:40:25;12.95;;;6.57;;
62151;SDS011;48139;47.474;19.034;2023-06-26T03:43:28;10.57;;;7.60;;
62151;SDS011;48139;47.474;19.034;2023-06-26T03:46:31;11.88;;;6.70;;
62151;SDS011;48139;47.474;19.034;2023-06-26T03:49:33;12.50;;;6.20;;
62151;SDS011;48139;47.474;19.034;2023-06-26T03:52:37;15.45;;;6.70;;
62151;SDS011;48139;47.474;19.034;2023-06-26T03:55:39;12.03;;;6.97;;
62151;SDS011;48139;47.474;19.034;2023-06-26T03:58:42;9.32;;;6.25;;
62151;SDS011;48139;47.474;19.034;2023-06-26T04:01:45;9.93;;;6.45;;
62151;SDS011;48139;47.474;19.034;2023-06-26T04:04:48;22.85;;;7.07;;
62151;SDS011;48139;47.474;19.034;2023-06-26T04:07:52;8.23;;;6.28;;
62151;SDS011;48139;47.474;19.034;2023-06-26T04:10:55;7.60;;;5.18;;
62151;SDS011;48139;47.474;19.034;2023-06-26T04:14:00;9.75;;;6.03;;
62151;SDS011;48139;47.474;19.034;2023-06-26T04:17:03;10.63;;;6.62;;
62151;SDS011;48139;47.474;19.034;2023-06-26T04:20:06;10.98;;;6.07;;
62151;SDS011;48139;47.474;19.034;2023-06-26T04:23:09;8.07;;;5.07;;
62151;SDS011;48139;47.474;19.034;2023-06-26T04:26:12;12.07;;;6.68;;
62151;SDS011;48139;47.474;19.034;2023-06-26T04:29:17;10.50;;;6.28;;
62151;SDS011;48139;47.474;19.034;2023-06-26T04:32:19;10.95;;;6.57;;
62151;SDS011;48139;47.474;19.034;2023-06-26T04:35:22;10.43;;;7.10;;
62151;SDS011;48139;47.474;19.034;2023-06-26T04:38:25;10.35;;;6.57;;
62151;SDS011;48139;47.474;19.034;2023-06-26T04:41:28;10.40;;;6.25;;
62151;SDS011;48139;47.474;19.034;2023-06-26T04:44:30;11.00;;;6.32;;
62151;SDS011;48139;47.474;19.034;2023-06-26T04:47:33;9.75;;;6.15;;
62151;SDS011;48139;47.474;19.034;2023-06-26T04:50:36;10.57;;;6.32;;
62151;SDS011;48139;47.474;19.034;2023-06-26T04:56:41;9.93;;;6.03;;
62151;SDS011;48139;47.474;19.034;2023-06-26T04:59:44;9.77;;;6.62;;
62151;SDS011;48139;47.474;19.034;2023-06-26T05:02:46;11.02;;;6.20;;
62151;SDS011;48139;47.474;19.034;2023-06-26T05:05:49;8.75;;;5.37;;
62151;SDS011;48139;47.474;19.034;2023-06-26T05:08:52;10.32;;;6.03;;
62151;SDS011;48139;47.474;19.034;2023-06-26T05:11:55;9.75;;;6.18;;
62151;SDS011;48139;47.474;19.034;2023-06-26T05:14:57;8.73;;;5.93;;
62151;SDS011;48139;47.474;19.034;2023-06-26T05:18:00;8.90;;;6.28;;
62151;SDS011;48139;47.474;19.034;2023-06-26T05:21:03;9.82;;;6.90;;
62151;SDS011;48139;47.474;19.034;2023-06-26T05:27:09;11.27;;;6.03;;
62151;SDS011;48139;47.474;19.034;2023-06-26T05:30:12;13.77;;;6.18;;
62151;SDS011;48139;47.474;19.034;2023-06-26T05:33:15;9.88;;;6.12;;
62151;SDS011;48139;47.474;19.034;2023-06-26T05:36:20;10.70;;;5.37;;
62151;SDS011;48139;47.474;19.034;2023-06-26T05:39:26;9.70;;;5.87;;
62151;SDS011;48139;47.474;19.034;2023-06-26T05:45:32;8.77;;;5.35;;
62151;SDS011;48139;47.474;19.034;2023-06-26T05:48:35;9.15;;;6.45;;
62151;SDS011;48139;47.474;19.034;2023-06-26T05:51:37;9.23;;;5.55;;
62151;SDS011;48139;47.474;19.034;2023-06-26T05:54:40;9.85;;;5.20;;
62151;SDS011;48139;47.474;19.034;2023-06-26T05:57:43;11.48;;;5.50;;
62151;SDS011;48139;47.474;19.034;2023-06-26T06:00:48;9.43;;;5.85;;
62151;SDS011;48139;47.474;19.034;2023-06-26T06:06:56;11.35;;;5.40;;
62151;SDS011;48139;47.474;19.034;2023-06-26T06:09:59;10.05;;;5.57;;
62151;SDS011;48139;47.474;19.034;2023-06-26T06:13:02;11.00;;;5.80;;
62151;SDS011;48139;47.474;19.034;2023-06-26T06:16:05;9.50;;;4.85;;
62151;SDS011;48139;47.474;19.034;2023-06-26T06:19:07;7.65;;;4.72;;
62151;SDS011;48139;47.474;19.034;2023-06-26T06:22:13;7.95;;;4.55;;
62151;SDS011;48139;47.474;19.034;2023-06-26T06:25:16;8.73;;;5.15;;
62151;SDS011;48139;47.474;19.034;2023-06-26T06:28:18;10.52;;;5.37;;
62151;SDS011;48139;47.474;19.034;2023-06-26T06:31:21;9.30;;;5.05;;
62151;SDS011;48139;47.474;19.034;2023-06-26T06:37:26;8.82;;;5.68;;
62151;SDS011;48139;47.474;19.034;2023-06-26T06:40:30;10.02;;;4.90;;
62151;SDS011;48139;47.474;19.034;2023-06-26T06:43:33;10.98;;;5.53;;
62151;SDS011;48139;47.474;19.034;2023-06-26T06:46:35;9.73;;;5.30;;
62151;SDS011;48139;47.474;19.034;2023-06-26T06:49:38;7.50;;;4.70;;
62151;SDS011;48139;47.474;19.034;2023-06-26T06:52:42;9.25;;;5.78;;
62151;SDS011;48139;47.474;19.034;2023-06-26T06:55:44;9.45;;;5.32;;
62151;SDS011;48139;47.474;19.034;2023-06-26T06:58:47;8.25;;;4.62;;
62151;SDS011;48139;47.474;19.034;2023-06-26T07:01:50;10.20;;;5.10;;
62151;SDS011;48139;47.474;19.034;2023-06-26T07:04:53;9.23;;;5.95;;
62151;SDS011;48139;47.474;19.034;2023-06-26T07:07:55;10.68;;;6.18;;
62151;SDS011;48139;47.474;19.034;2023-06-26T07:10:59;9.70;;;5.65;;
62151;SDS011;48139;47.474;19.034;2023-06-26T07:17:05;8.13;;;4.97;;
62151;SDS011;48139;47.474;19.034;2023-06-26T07:20:08;9.88;;;5.47;;
62151;SDS011;48139;47.474;19.034;2023-06-26T07:23:12;9.68;;;5.68;;
62151;SDS011;48139;47.474;19.034;2023-06-26T07:26:15;10.05;;;5.12;;
62151;SDS011;48139;47.474;19.034;2023-06-26T07:29:18;12.27;;;5.60;;
62151;SDS011;48139;47.474;19.034;2023-06-26T07:32:20;9.50;;;4.97;;
62151;SDS011;48139;47.474;19.034;2023-06-26T07:38:27;13.13;;;6.22;;
62151;SDS011;48139;47.474;19.034;2023-06-26T07:46:06;8.43;;;5.07;;
62151;SDS011;48139;47.474;19.034;2023-06-26T07:54:28;10.35;;;6.30;;
62151;SDS011;48139;47.474;19.034;2023-06-26T07:57:37;9.00;;;5.10;;
62151;SDS011;48139;47.474;19.034;2023-06-26T08:00:44;9.82;;;4.55;;
62151;SDS011;48139;47.474;19.034;2023-06-26T08:03:52;10.27;;;5.37;;
62151;SDS011;48139;47.474;19.034;2023-06-26T08:06:59;12.00;;;5.68;;
62151;SDS011;48139;47.474;19.034;2023-06-26T08:10:08;13.30;;;5.15;;
62151;SDS011;48139;47.474;19.034;2023-06-26T08:13:16;10.57;;;4.95;;
62151;SDS011;48139;47.474;19.034;2023-06-26T08:16:19;9.23;;;5.72;;
62151;SDS011;48139;47.474;19.034;2023-06-26T08:19:21;8.70;;;4.78;;
62151;SDS011;48139;47.474;19.034;2023-06-26T08:22:29;7.93;;;4.55;;
62151;SDS011;48139;47.474;19.034;2023-06-26T08:25:31;14.93;;;5.05;;
62151;SDS011;48139;47.474;19.034;2023-06-26T08:31:37;8.23;;;4.45;;
62151;SDS011;48139;47.474;19.034;2023-06-26T08:34:40;8.77;;;4.57;;
62151;SDS011;48139;47.474;19.034;2023-06-26T08:37:43;8.43;;;5.20;;
62151;SDS011;48139;47.474;19.034;2023-06-26T08:40:47;8.70;;;4.53;;
62151;SDS011;48139;47.474;19.034;2023-06-26T08:43:50;9.57;;;5.37;;
62151;SDS011;48139;47.474;19.034;2023-06-26T08:46:54;9.55;;;4.32;;
62151;SDS011;48139;47.474;19.034;2023-06-26T08:53:23;11.60;;;5.32;;
62151;SDS011;48139;47.474;19.034;2023-06-26T08:56:35;10.45;;;5.12;;
62151;SDS011;48139;47.474;19.034;2023-06-26T08:59:41;10.50;;;5.70;;
62151;SDS011;48139;47.474;19.034;2023-06-26T09:02:43;10.07;;;6.30;;
62151;SDS011;48139;47.474;19.034;2023-06-26T09:05:47;8.25;;;5.18;;
62151;SDS011;48139;47.474;19.034;2023-06-26T09:08:50;9.27;;;6.25;;
62151;SDS011;48139;47.474;19.034;2023-06-26T09:11:52;8.68;;;5.68;;
62151;SDS011;48139;47.474;19.034;2023-06-26T09:14:58;10.98;;;6.15;;
62151;SDS011;48139;47.474;19.034;2023-06-26T09:18:02;11.50;;;4.90;;
62151;SDS011;48139;47.474;19.034;2023-06-26T09:21:07;11.35;;;6.20;;
62151;SDS011;48139;47.474;19.034;2023-06-26T09:24:11;8.15;;;5.12;;
62151;SDS011;48139;47.474;19.034;2023-06-26T09:27:16;11.70;;;5.72;;
62151;SDS011;48139;47.474;19.034;2023-06-26T09:30:19;9.25;;;4.70;;
62151;SDS011;48139;47.474;19.034;2023-06-26T09:33:22;8.95;;;4.90;;
62151;SDS011;48139;47.474;19.034;2023-06-26T09:39:30;8.70;;;5.03;;
62151;SDS011;48139;47.474;19.034;2023-06-26T09:42:33;10.82;;;5.37;;
62151;SDS011;48139;47.474;19.034;2023-06-26T09:45:37;8.27;;;5.40;;
62151;SDS011;48139;47.474;19.034;2023-06-26T09:48:42;10.63;;;5.53;;
62151;SDS011;48139;47.474;19.034;2023-06-26T09:51:44;9.73;;;4.87;;
62151;SDS011;48139;47.474;19.034;2023-06-26T09:57:49;7.90;;;4.87;;
62151;SDS011;48139;47.474;19.034;2023-06-26T10:00:53;8.38;;;5.15;;
62151;SDS011;48139;47.474;19.034;2023-06-26T10:03:56;9.40;;;5.32;;
62151;SDS011;48139;47.474;19.034;2023-06-26T10:07:01;9.65;;;4.97;;
62151;SDS011;48139;47.474;19.034;2023-06-26T10:10:07;8.27;;;4.90;;
62151;SDS011;48139;47.474;19.034;2023-06-26T10:13:15;8.55;;;5.55;;
62151;SDS011;48139;47.474;19.034;2023-06-26T10:16:25;9.18;;;5.72;;
62151;SDS011;48139;47.474;19.034;2023-06-26T10:19:31;8.88;;;5.28;;
62151;SDS011;48139;47.474;19.034;2023-06-26T10:22:46;7.70;;;4.57;;
62151;SDS011;48139;47.474;19.034;2023-06-26T10:28:53;8.80;;;5.03;;
62151;SDS011;48139;47.474;19.034;2023-06-26T10:31:58;9.57;;;5.22;;
62151;SDS011;48139;47.474;19.034;2023-06-26T10:35:06;9.02;;;5.78;;
62151;SDS011;48139;47.474;19.034;2023-06-26T10:38:09;10.88;;;6.43;;
62151;SDS011;48139;47.474;19.034;2023-06-26T10:41:12;9.65;;;5.00;;
62151;SDS011;48139;47.474;19.034;2023-06-26T10:44:16;8.65;;;4.78;;
62151;SDS011;48139;47.474;19.034;2023-06-26T10:47:29;11.30;;;6.15;;
62151;SDS011;48139;47.474;19.034;2023-06-26T10:50:35;11.40;;;5.70;;
62151;SDS011;48139;47.474;19.034;2023-06-26T10:53:38;11.98;;;7.25;;
62151;SDS011;48139;47.474;19.034;2023-06-26T10:56:44;8.00;;;4.75;;
62151;SDS011;48139;47.474;19.034;2023-06-26T10:59:47;9.48;;;5.68;;
62151;SDS011;48139;47.474;19.034;2023-06-26T11:06:09;9.43;;;5.53;;
62151;SDS011;48139;47.474;19.034;2023-06-26T11:09:17;13.23;;;5.47;;
62151;SDS011;48139;47.474;19.034;2023-06-26T11:12:39;8.52;;;4.82;;
62151;SDS011;48139;47.474;19.034;2023-06-26T11:15:46;9.25;;;5.93;;
62151;SDS011;48139;47.474;19.034;2023-06-26T11:18:49;9.05;;;5.85;;
62151;SDS011;48139;47.474;19.034;2023-06-26T11:24:55;11.32;;;5.30;;
62151;SDS011;48139;47.474;19.034;2023-06-26T11:28:02;7.95;;;4.93;;
62151;SDS011;48139;47.474;19.034;2023-06-26T11:31:08;8.57;;;5.03;;
62151;SDS011;48139;47.474;19.034;2023-06-26T11:34:29;8.55;;;6.07;;
62151;SDS011;48139;47.474;19.034;2023-06-26T11:37:32;11.00;;;5.65;;
62151;SDS011;48139;47.474;19.034;2023-06-26T11:40:36;7.47;;;5.00;;
62151;SDS011;48139;47.474;19.034;2023-06-26T11:43:39;9.38;;;4.82;;
62151;SDS011;48139;47.474;19.034;2023-06-26T11:46:42;10.10;;;4.32;;
62151;SDS011;48139;47.474;19.034;2023-06-26T11:49:45;9.77;;;4.65;;
62151;SDS011;48139;47.474;19.034;2023-06-26T11:52:53;7.57;;;4.87;;
62151;SDS011;48139;47.474;19.034;2023-06-26T11:55:57;7.93;;;4.60;;
62151;SDS011;48139;47.474;19.034;2023-06-26T12:02:10;11.07;;;5.62;;
62151;SDS011;48139;47.474;19.034;2023-06-26T12:05:15;8.35;;;4.57;;
62151;SDS011;48139;47.474;19.034;2023-06-26T12:08:19;9.30;;;4.72;;
62151;SDS011;48139;47.474;19.034;2023-06-26T12:11:22;8.30;;;4.75;;
62151;SDS011;48139;47.474;19.034;2023-06-26T12:14:26;8.88;;;4.82;;
62151;SDS011;48139;47.474;19.034;2023-06-26T12:17:33;8.95;;;5.93;;
62151;SDS011;48139;47.474;19.034;2023-06-26T12:20:39;8.52;;;4.75;;
62151;SDS011;48139;47.474;19.034;2023-06-26T12:23:43;9.00;;;5.10;;
62151;SDS011;48139;47.474;19.034;2023-06-26T12:29:52;6.68;;;3.72;;
62151;SDS011;48139;47.474;19.034;2023-06-26T12:32:55;9.15;;;4.85;;
62151;SDS011;48139;47.474;19.034;2023-06-26T12:35:58;8.15;;;4.97;;
62151;SDS011;48139;47.474;19.034;2023-06-26T12:39:01;9.18;;;4.95;;
62151;SDS011;48139;47.474;19.034;2023-06-26T12:42:05;8.02;;;4.50;;
62151;SDS011;48139;47.474;19.034;2023-06-26T12:45:11;12.52;;;5.37;;
62151;SDS011;48139;47.474;19.034;2023-06-26T12:48:43;7.55;;;4.68;;
62151;SDS011;48139;47.474;19.034;2023-06-26T12:51:48;7.87;;;4.65;;
62151;SDS011;48139;47.474;19.034;2023-06-26T13:00:56;7.22;;;4.22;;
62151;SDS011;48139;47.474;19.034;2023-06-26T13:03:59;7.50;;;3.92;;
62151;SDS011;48139;47.474;19.034;2023-06-26T13:07:02;8.45;;;4.57;;
62151;SDS011;48139;47.474;19.034;2023-06-26T13:10:05;8.15;;;4.78;;
62151;SDS011;48139;47.474;19.034;2023-06-26T13:13:09;7.00;;;4.65;;
62151;SDS011;48139;47.474;19.034;2023-06-26T13:16:12;7.85;;;4.62;;
62151;SDS011;48139;47.474;19.034;2023-06-26T13:19:15;7.68;;;4.53;;
62151;SDS011;48139;47.474;19.034;2023-06-26T13:22:18;7.47;;;4.97;;
62151;SDS011;48139;47.474;19.034;2023-06-26T13:25:21;7.07;;;3.83;;
62151;SDS011;48139;47.474;19.034;2023-06-26T13:28:24;7.87;;;4.62;;
62151;SDS011;48139;47.474;19.034;2023-06-26T13:31:27;7.70;;;4.50;;
62151;SDS011;48139;47.474;19.034;2023-06-26T13:34:30;7.62;;;4.40;;
62151;SDS011;48139;47.474;19.034;2023-06-26T13:37:32;7.60;;;4.82;;
62151;SDS011;48139;47.474;19.034;2023-06-26T13:40:36;10.60;;;4.95;;
62151;SDS011;48139;47.474;19.034;2023-06-26T13:43:39;9.07;;;4.30;;
62151;SDS011;48139;47.474;19.034;2023-06-26T13:46:43;8.35;;;4.20;;
62151;SDS011;48139;47.474;19.034;2023-06-26T13:49:46;8.68;;;4.37;;
62151;SDS011;48139;47.474;19.034;2023-06-26T13:52:48;7.95;;;3.85;;
62151;SDS011;48139;47.474;19.034;2023-06-26T13:58:53;7.75;;;4.32;;
62151;SDS011;48139;47.474;19.034;2023-06-26T14:01:56;8.15;;;4.55;;
62151;SDS011;48139;47.474;19.034;2023-06-26T14:04:59;8.50;;;4.28;;
62151;SDS011;48139;47.474;19.034;2023-06-26T14:08:02;14.38;;;5.10;;
62151;SDS011;48139;47.474;19.034;2023-06-26T14:11:06;7.40;;;4.10;;
62151;SDS011;48139;47.474;19.034;2023-06-26T14:14:09;8.45;;;4.93;;
62151;SDS011;48139;47.474;19.034;2023-06-26T14:20:18;8.65;;;4.47;;
62151;SDS011;48139;47.474;19.034;2023-06-26T14:23:23;8.32;;;4.70;;
62151;SDS011;48139;47.474;19.034;2023-06-26T14:26:25;7.22;;;4.15;;
62151;SDS011;48139;47.474;19.034;2023-06-26T14:29:29;10.43;;;5.05;;
62151;SDS011;48139;47.474;19.034;2023-06-26T14:32:31;6.95;;;3.83;;
62151;SDS011;48139;47.474;19.034;2023-06-26T14:38:37;7.65;;;3.55;;
62151;SDS011;48139;47.474;19.034;2023-06-26T14:41:41;7.53;;;4.10;;
62151;SDS011;48139;47.474;19.034;2023-06-26T14:44:44;8.55;;;4.00;;
62151;SDS011;48139;47.474;19.034;2023-06-26T14:47:50;8.57;;;4.50;;
62151;SDS011;48139;47.474;19.034;2023-06-26T14:50:52;7.03;;;3.95;;
62151;SDS011;48139;47.474;19.034;2023-06-26T14:53:55;8.10;;;4.22;;
62151;SDS011;48139;47.474;19.034;2023-06-26T14:56:57;5.82;;;4.03;;
62151;SDS011;48139;47.474;19.034;2023-06-26T15:00:01;7.37;;;3.72;;
62151;SDS011;48139;47.474;19.034;2023-06-26T15:03:03;7.03;;;3.55;;
62151;SDS011;48139;47.474;19.034;2023-06-26T15:06:06;5.43;;;3.10;;
62151;SDS011;48139;47.474;19.034;2023-06-26T15:09:08;8.45;;;4.37;;
62151;SDS011;48139;47.474;19.034;2023-06-26T15:12:11;7.15;;;3.95;;
62151;SDS011;48139;47.474;19.034;2023-06-26T15:15:14;5.75;;;3.47;;
